Alfred, New York
Current Conditions -  °F | °C
As of 6:56 PM on Sunday 25 Jan 2015 (Local Time) from KELZ Reporting Station
Clear Clear  
Wind Chill: -16°   Ceiling: Unl
Heat Index: -10°   Visibility: 10mi
Dew Point: -15°   Wind: 7mph
Humidity: 67%   Direction: 30°NNE
Pressure: 29.86"   Gusts: NA
Location:  42.25°N, 77.79°W
Report Text: KELZ 252356Z AUTO 03006KT 10SM CLR M10/M15 A2986 RMK AO2 SLP145 T11001150 11044 21100 51021
Loading
Personal Weather Stations






























Interactive Weather Map New forecast layout! Learn more

10-Day Weather Forecast

Advertisements
Track Severe Weather on mobile